5M9

Marion-Crittenden County Airport

Marion, Kentucky, USA
METAR K5M9 171435Z AUTO 18003KT 10SM CLR 25/20 A3006 RMK AO2 T02500204
Observed Flight Rules
Aug-17 @ 14:35 UTC (22 minutes ago) Visual Flight Rules
Wind Visibility Clouds
180° at 3 knots 10 miles
  • Clear skies
Temperatures Readings
Current 25°C / 77°F
Dewpoint 20°C / 68°F
Humidity 74%
Altimeter 30.06" Hg
Pressure 1018 hPa
Elevation 199
METAR K5M9 171435Z AUTO 18003KT 10SM CLR 25/20 A3006 RMK AO2 T02500204
Observed Flight Rules
Aug-17 @ 14:35 UTC
(22 minutes ago)
VFR
Wind Visibility
180° at 3 knots 10 miles
Clouds
  • Clear skies
Temperature Dewpoint
25°C / 77°F 20°C / 68°F
Humidity Altimeter Pressure
74% 30.06" Hg 1018 hPa